Firdale, Washington
Current Conditions -  °F | °C
As of 11:53 AM on Saturday 25 Oct 2014 (Local Time) from KHQM Reporting Station
Light Rain Light Rain  
Wind Chill: 55°   Ceiling: 7000
Heat Index: 55°   Visibility: 7mi
Dew Point: 52°   Wind: 17mph
Humidity: 89%   Direction: 50°NE
Pressure: 29.3"   Gusts: 25mph
Location:  46.6563°N, 123.58°W
Report Text: KHQM 251853Z AUTO 05015G22KT 7SM -RA BKN070 OVC080 13/11 A2930 RMK AO2 SLP926 P0001 T01280111
Loading
Personal Weather Stations






























Interactive Weather Map
Tropical Storm Tracking
New forecast layout! Learn more

10-Day Weather Forecast

Advertisements
Track Severe Weather on mobile